sensor_id;sensor_type;location;lat;lon;timestamp;P1;durP1;ratioP1;P2;durP2;ratioP2
25525;SDS011;13424;48.424;11.258;2023-12-22T00:01:21;0.40;;;0.40;;
25525;SDS011;13424;48.424;11.258;2023-12-22T00:03:47;2.42;;;0.85;;
25525;SDS011;13424;48.424;11.258;2023-12-22T00:06:15;0.50;;;0.50;;
25525;SDS011;13424;48.424;11.258;2023-12-22T00:08:50;0.50;;;0.50;;
25525;SDS011;13424;48.424;11.258;2023-12-22T00:11:16;1.02;;;0.63;;
25525;SDS011;13424;48.424;11.258;2023-12-22T00:13:42;1.15;;;0.70;;
25525;SDS011;13424;48.424;11.258;2023-12-22T00:16:08;1.60;;;0.70;;
25525;SDS011;13424;48.424;11.258;2023-12-22T00:18:43;1.08;;;0.60;;
25525;SDS011;13424;48.424;11.258;2023-12-22T00:21:10;1.10;;;0.75;;
25525;SDS011;13424;48.424;11.258;2023-12-22T00:23:38;1.00;;;0.63;;
25525;SDS011;13424;48.424;11.258;2023-12-22T00:26:07;2.05;;;0.57;;
25525;SDS011;13424;48.424;11.258;2023-12-22T00:28:33;5.95;;;1.08;;
25525;SDS011;13424;48.424;11.258;2023-12-22T00:30:59;1.88;;;0.98;;
25525;SDS011;13424;48.424;11.258;2023-12-22T00:33:25;5.55;;;0.80;;
25525;SDS011;13424;48.424;11.258;2023-12-22T00:35:52;1.52;;;0.60;;
25525;SDS011;13424;48.424;11.258;2023-12-22T00:38:18;3.05;;;0.73;;
25525;SDS011;13424;48.424;11.258;2023-12-22T00:40:44;1.70;;;0.98;;
25525;SDS011;13424;48.424;11.258;2023-12-22T00:43:10;1.35;;;0.77;;
25525;SDS011;13424;48.424;11.258;2023-12-22T00:49:11;3.97;;;0.88;;
25525;SDS011;13424;48.424;11.258;2023-12-22T00:51:37;3.45;;;0.80;;
25525;SDS011;13424;48.424;11.258;2023-12-22T00:54:04;4.72;;;1.15;;
25525;SDS011;13424;48.424;11.258;2023-12-22T00:56:30;1.77;;;0.82;;
25525;SDS011;13424;48.424;11.258;2023-12-22T00:58:56;3.78;;;0.93;;
25525;SDS011;13424;48.424;11.258;2023-12-22T01:01:23;2.65;;;0.70;;
25525;SDS011;13424;48.424;11.258;2023-12-22T01:03:49;1.55;;;0.95;;
25525;SDS011;13424;48.424;11.258;2023-12-22T01:06:16;0.90;;;0.50;;
25525;SDS011;13424;48.424;11.258;2023-12-22T01:08:42;2.05;;;1.20;;
25525;SDS011;13424;48.424;11.258;2023-12-22T01:11:08;3.25;;;1.00;;
25525;SDS011;13424;48.424;11.258;2023-12-22T01:13:34;3.60;;;2.03;;
25525;SDS011;13424;48.424;11.258;2023-12-22T01:16:00;0.80;;;0.77;;
25525;SDS011;13424;48.424;11.258;2023-12-22T01:18:38;2.63;;;0.75;;
25525;SDS011;13424;48.424;11.258;2023-12-22T01:23:33;1.73;;;0.70;;
25525;SDS011;13424;48.424;11.258;2023-12-22T01:25:59;2.20;;;0.85;;
25525;SDS011;13424;48.424;11.258;2023-12-22T01:28:26;4.20;;;1.10;;
25525;SDS011;13424;48.424;11.258;2023-12-22T01:30:52;1.95;;;0.75;;
25525;SDS011;13424;48.424;11.258;2023-12-22T01:33:18;0.60;;;0.60;;
25525;SDS011;13424;48.424;11.258;2023-12-22T01:35:44;2.17;;;0.65;;
25525;SDS011;13424;48.424;11.258;2023-12-22T01:38:12;4.95;;;0.70;;
25525;SDS011;13424;48.424;11.258;2023-12-22T01:45:03;2.72;;;0.63;;
25525;SDS011;13424;48.424;11.258;2023-12-22T01:47:30;1.42;;;0.82;;
25525;SDS011;13424;48.424;11.258;2023-12-22T01:49:56;2.50;;;0.50;;
25525;SDS011;13424;48.424;11.258;2023-12-22T01:52:23;0.70;;;0.60;;
25525;SDS011;13424;48.424;11.258;2023-12-22T01:54:50;1.33;;;0.50;;
25525;SDS011;13424;48.424;11.258;2023-12-22T01:57:17;1.92;;;0.63;;
25525;SDS011;13424;48.424;11.258;2023-12-22T01:59:45;1.60;;;0.43;;
25525;SDS011;13424;48.424;11.258;2023-12-22T02:02:13;5.00;;;1.17;;
25525;SDS011;13424;48.424;11.258;2023-12-22T02:04:40;2.80;;;0.70;;
25525;SDS011;13424;48.424;11.258;2023-12-22T02:07:07;0.40;;;0.40;;
25525;SDS011;13424;48.424;11.258;2023-12-22T02:09:35;0.52;;;0.52;;
25525;SDS011;13424;48.424;11.258;2023-12-22T02:12:02;0.57;;;0.57;;
25525;SDS011;13424;48.424;11.258;2023-12-22T02:14:29;0.90;;;0.57;;
25525;SDS011;13424;48.424;11.258;2023-12-22T02:19:47;0.90;;;0.40;;
25525;SDS011;13424;48.424;11.258;2023-12-22T02:22:14;0.30;;;0.30;;
25525;SDS011;13424;48.424;11.258;2023-12-22T02:24:41;0.50;;;0.40;;
25525;SDS011;13424;48.424;11.258;2023-12-22T02:32:55;0.40;;;0.40;;
25525;SDS011;13424;48.424;11.258;2023-12-22T02:35:27;0.50;;;0.50;;
25525;SDS011;13424;48.424;11.258;2023-12-22T02:37:58;1.20;;;0.50;;
25525;SDS011;13424;48.424;11.258;2023-12-22T02:40:33;0.50;;;0.50;;
25525;SDS011;13424;48.424;11.258;2023-12-22T02:43:04;0.88;;;0.35;;
25525;SDS011;13424;48.424;11.258;2023-12-22T02:45:32;1.00;;;0.60;;
25525;SDS011;13424;48.424;11.258;2023-12-22T02:47:58;0.30;;;0.30;;
25525;SDS011;13424;48.424;11.258;2023-12-22T02:50:24;0.43;;;0.43;;
25525;SDS011;13424;48.424;11.258;2023-12-22T02:52:51;0.50;;;0.50;;
25525;SDS011;13424;48.424;11.258;2023-12-22T02:55:17;2.28;;;0.52;;
25525;SDS011;13424;48.424;11.258;2023-12-22T02:57:43;0.55;;;0.55;;
25525;SDS011;13424;48.424;11.258;2023-12-22T03:00:09;1.17;;;0.63;;
25525;SDS011;13424;48.424;11.258;2023-12-22T03:02:36;0.30;;;0.30;;
25525;SDS011;13424;48.424;11.258;2023-12-22T03:05:04;1.20;;;0.50;;
25525;SDS011;13424;48.424;11.258;2023-12-22T03:07:30;2.08;;;0.60;;
25525;SDS011;13424;48.424;11.258;2023-12-22T03:09:56;0.32;;;0.20;;
25525;SDS011;13424;48.424;11.258;2023-12-22T03:12:22;0.30;;;0.30;;
25525;SDS011;13424;48.424;11.258;2023-12-22T03:14:48;0.55;;;0.50;;
25525;SDS011;13424;48.424;11.258;2023-12-22T03:17:14;0.73;;;0.40;;
25525;SDS011;13424;48.424;11.258;2023-12-22T03:19:40;1.42;;;0.50;;
25525;SDS011;13424;48.424;11.258;2023-12-22T03:22:07;0.50;;;0.50;;
25525;SDS011;13424;48.424;11.258;2023-12-22T03:24:33;0.40;;;0.40;;
25525;SDS011;13424;48.424;11.258;2023-12-22T03:26:59;0.85;;;0.47;;
25525;SDS011;13424;48.424;11.258;2023-12-22T03:29:25;0.40;;;0.40;;
25525;SDS011;13424;48.424;11.258;2023-12-22T03:31:51;0.45;;;0.45;;
25525;SDS011;13424;48.424;11.258;2023-12-22T03:34:17;1.00;;;0.60;;
25525;SDS011;13424;48.424;11.258;2023-12-22T03:36:43;0.43;;;0.40;;
25525;SDS011;13424;48.424;11.258;2023-12-22T03:39:13;1.88;;;0.50;;
25525;SDS011;13424;48.424;11.258;2023-12-22T03:41:41;0.52;;;0.40;;
25525;SDS011;13424;48.424;11.258;2023-12-22T03:44:07;0.40;;;0.40;;
25525;SDS011;13424;48.424;11.258;2023-12-22T03:46:36;0.60;;;0.60;;
25525;SDS011;13424;48.424;11.258;2023-12-22T03:49:03;0.80;;;0.60;;
25525;SDS011;13424;48.424;11.258;2023-12-22T03:51:29;1.85;;;0.60;;
25525;SDS011;13424;48.424;11.258;2023-12-22T03:53:55;0.95;;;0.60;;
25525;SDS011;13424;48.424;11.258;2023-12-22T03:56:21;1.65;;;1.00;;
25525;SDS011;13424;48.424;11.258;2023-12-22T03:58:47;2.50;;;1.52;;
25525;SDS011;13424;48.424;11.258;2023-12-22T04:01:14;1.10;;;1.10;;
25525;SDS011;13424;48.424;11.258;2023-12-22T04:03:40;2.88;;;1.73;;
25525;SDS011;13424;48.424;11.258;2023-12-22T04:06:06;1.70;;;1.60;;
25525;SDS011;13424;48.424;11.258;2023-12-22T04:08:32;5.40;;;2.15;;
25525;SDS011;13424;48.424;11.258;2023-12-22T04:10:58;4.32;;;1.73;;
25525;SDS011;13424;48.424;11.258;2023-12-22T04:13:24;1.50;;;1.40;;
25525;SDS011;13424;48.424;11.258;2023-12-22T04:15:50;4.35;;;1.35;;
25525;SDS011;13424;48.424;11.258;2023-12-22T04:18:16;4.28;;;2.50;;
25525;SDS011;13424;48.424;11.258;2023-12-22T04:20:42;3.47;;;2.15;;
25525;SDS011;13424;48.424;11.258;2023-12-22T04:26:53;3.58;;;1.40;;
25525;SDS011;13424;48.424;11.258;2023-12-22T04:29:19;3.35;;;1.42;;
25525;SDS011;13424;48.424;11.258;2023-12-22T04:31:45;3.35;;;1.65;;
25525;SDS011;13424;48.424;11.258;2023-12-22T04:34:14;8.23;;;1.75;;
25525;SDS011;13424;48.424;11.258;2023-12-22T04:36:41;5.15;;;1.65;;
25525;SDS011;13424;48.424;11.258;2023-12-22T04:39:07;5.75;;;1.38;;
25525;SDS011;13424;48.424;11.258;2023-12-22T04:41:33;6.88;;;2.10;;
25525;SDS011;13424;48.424;11.258;2023-12-22T04:43:59;4.97;;;1.70;;
25525;SDS011;13424;48.424;11.258;2023-12-22T04:50:27;5.35;;;1.98;;
25525;SDS011;13424;48.424;11.258;2023-12-22T04:52:53;2.60;;;1.27;;
25525;SDS011;13424;48.424;11.258;2023-12-22T04:55:19;2.63;;;1.58;;
25525;SDS011;13424;48.424;11.258;2023-12-22T04:57:45;6.20;;;1.98;;
25525;SDS011;13424;48.424;11.258;2023-12-22T05:00:13;5.35;;;1.38;;
25525;SDS011;13424;48.424;11.258;2023-12-22T05:02:39;6.97;;;1.70;;
25525;SDS011;13424;48.424;11.258;2023-12-22T05:05:07;5.78;;;2.35;;
25525;SDS011;13424;48.424;11.258;2023-12-22T05:07:34;8.85;;;1.75;;
25525;SDS011;13424;48.424;11.258;2023-12-22T05:10:00;6.47;;;2.03;;
25525;SDS011;13424;48.424;11.258;2023-12-22T05:12:26;8.77;;;1.88;;
25525;SDS011;13424;48.424;11.258;2023-12-22T05:14:52;5.57;;;1.42;;
25525;SDS011;13424;48.424;11.258;2023-12-22T05:21:17;6.53;;;1.80;;
25525;SDS011;13424;48.424;11.258;2023-12-22T05:23:43;2.67;;;1.33;;
25525;SDS011;13424;48.424;11.258;2023-12-22T05:26:09;3.63;;;1.20;;
25525;SDS011;13424;48.424;11.258;2023-12-22T05:28:35;2.53;;;1.27;;
25525;SDS011;13424;48.424;11.258;2023-12-22T05:31:01;1.58;;;1.48;;
25525;SDS011;13424;48.424;11.258;2023-12-22T05:33:27;1.75;;;0.98;;
25525;SDS011;13424;48.424;11.258;2023-12-22T05:35:54;1.13;;;1.02;;
25525;SDS011;13424;48.424;11.258;2023-12-22T05:38:20;2.20;;;0.90;;
25525;SDS011;13424;48.424;11.258;2023-12-22T05:40:46;0.70;;;0.68;;
25525;SDS011;13424;48.424;11.258;2023-12-22T05:43:13;0.90;;;0.55;;
25525;SDS011;13424;48.424;11.258;2023-12-22T05:45:39;2.95;;;1.17;;
25525;SDS011;13424;48.424;11.258;2023-12-22T05:48:06;3.80;;;0.98;;
25525;SDS011;13424;48.424;11.258;2023-12-22T05:50:32;3.67;;;1.40;;
25525;SDS011;13424;48.424;11.258;2023-12-22T05:52:58;4.55;;;0.80;;
25525;SDS011;13424;48.424;11.258;2023-12-22T05:55:24;0.68;;;0.60;;
25525;SDS011;13424;48.424;11.258;2023-12-22T05:57:50;0.90;;;0.90;;
25525;SDS011;13424;48.424;11.258;2023-12-22T06:00:16;2.25;;;0.95;;
25525;SDS011;13424;48.424;11.258;2023-12-22T06:02:43;1.05;;;0.88;;
25525;SDS011;13424;48.424;11.258;2023-12-22T06:05:09;4.03;;;1.30;;
25525;SDS011;13424;48.424;11.258;2023-12-22T06:07:35;1.50;;;1.10;;
25525;SDS011;13424;48.424;11.258;2023-12-22T06:10:01;1.50;;;1.00;;
25525;SDS011;13424;48.424;11.258;2023-12-22T06:12:27;1.30;;;1.02;;
25525;SDS011;13424;48.424;11.258;2023-12-22T06:14:53;1.13;;;0.90;;
25525;SDS011;13424;48.424;11.258;2023-12-22T06:17:19;1.00;;;1.00;;
25525;SDS011;13424;48.424;11.258;2023-12-22T06:19:45;1.42;;;0.90;;
25525;SDS011;13424;48.424;11.258;2023-12-22T06:22:11;0.88;;;0.88;;
25525;SDS011;13424;48.424;11.258;2023-12-22T06:24:37;2.42;;;1.10;;
25525;SDS011;13424;48.424;11.258;2023-12-22T06:27:03;0.60;;;0.60;;
25525;SDS011;13424;48.424;11.258;2023-12-22T06:29:32;3.00;;;0.93;;
25525;SDS011;13424;48.424;11.258;2023-12-22T06:31:59;0.93;;;0.90;;
25525;SDS011;13424;48.424;11.258;2023-12-22T06:34:25;2.05;;;1.20;;
25525;SDS011;13424;48.424;11.258;2023-12-22T06:36:52;3.90;;;1.17;;
25525;SDS011;13424;48.424;11.258;2023-12-22T06:39:18;5.15;;;1.60;;
25525;SDS011;13424;48.424;11.258;2023-12-22T06:41:45;6.93;;;1.30;;
25525;SDS011;13424;48.424;11.258;2023-12-22T06:44:11;4.72;;;2.10;;
25525;SDS011;13424;48.424;11.258;2023-12-22T06:46:37;2.92;;;1.65;;
25525;SDS011;13424;48.424;11.258;2023-12-22T06:49:04;4.82;;;1.30;;
25525;SDS011;13424;48.424;11.258;2023-12-22T06:51:31;4.72;;;1.55;;
25525;SDS011;13424;48.424;11.258;2023-12-22T06:54:02;2.60;;;1.70;;
25525;SDS011;13424;48.424;11.258;2023-12-22T06:56:33;3.28;;;1.13;;
25525;SDS011;13424;48.424;11.258;2023-12-22T06:59:00;5.05;;;1.83;;
25525;SDS011;13424;48.424;11.258;2023-12-22T07:01:28;5.03;;;1.38;;
25525;SDS011;13424;48.424;11.258;2023-12-22T07:04:00;5.28;;;1.80;;
25525;SDS011;13424;48.424;11.258;2023-12-22T07:06:34;5.15;;;2.00;;
25525;SDS011;13424;48.424;11.258;2023-12-22T07:11:49;2.10;;;1.27;;
25525;SDS011;13424;48.424;11.258;2023-12-22T07:14:18;2.38;;;1.50;;
25525;SDS011;13424;48.424;11.258;2023-12-22T07:16:44;2.95;;;1.05;;
25525;SDS011;13424;48.424;11.258;2023-12-22T07:19:10;4.13;;;1.55;;
25525;SDS011;13424;48.424;11.258;2023-12-22T07:21:38;3.83;;;1.20;;
25525;SDS011;13424;48.424;11.258;2023-12-22T07:24:06;3.53;;;1.60;;
25525;SDS011;13424;48.424;11.258;2023-12-22T07:26:32;8.50;;;2.10;;
25525;SDS011;13424;48.424;11.258;2023-12-22T07:28:59;3.38;;;1.48;;
25525;SDS011;13424;48.424;11.258;2023-12-22T07:31:25;5.47;;;1.55;;
25525;SDS011;13424;48.424;11.258;2023-12-22T07:33:52;5.22;;;1.80;;
25525;SDS011;13424;48.424;11.258;2023-12-22T07:36:18;2.38;;;1.33;;
25525;SDS011;13424;48.424;11.258;2023-12-22T07:38:44;4.25;;;1.35;;
25525;SDS011;13424;48.424;11.258;2023-12-22T07:41:10;2.92;;;1.38;;
25525;SDS011;13424;48.424;11.258;2023-12-22T07:43:36;2.67;;;1.02;;
25525;SDS011;13424;48.424;11.258;2023-12-22T07:46:02;2.03;;;1.00;;
25525;SDS011;13424;48.424;11.258;2023-12-22T07:48:29;1.83;;;1.02;;
25525;SDS011;13424;48.424;11.258;2023-12-22T07:50:55;4.22;;;1.05;;
25525;SDS011;13424;48.424;11.258;2023-12-22T07:53:21;3.25;;;1.20;;
25525;SDS011;13424;48.424;11.258;2023-12-22T07:55:47;3.40;;;1.00;;
25525;SDS011;13424;48.424;11.258;2023-12-22T07:58:13;1.65;;;1.20;;
25525;SDS011;13424;48.424;11.258;2023-12-22T08:00:42;1.23;;;1.08;;
25525;SDS011;13424;48.424;11.258;2023-12-22T08:03:08;2.80;;;1.23;;
25525;SDS011;13424;48.424;11.258;2023-12-22T08:05:36;3.25;;;1.55;;
25525;SDS011;13424;48.424;11.258;2023-12-22T08:08:02;7.10;;;1.77;;
25525;SDS011;13424;48.424;11.258;2023-12-22T08:10:29;1.70;;;1.30;;
25525;SDS011;13424;48.424;11.258;2023-12-22T08:12:55;5.47;;;1.85;;
25525;SDS011;13424;48.424;11.258;2023-12-22T08:15:22;12.43;;;3.10;;
25525;SDS011;13424;48.424;11.258;2023-12-22T08:17:48;1.80;;;1.58;;
25525;SDS011;13424;48.424;11.258;2023-12-22T08:20:19;3.45;;;1.50;;
25525;SDS011;13424;48.424;11.258;2023-12-22T08:22:49;7.13;;;2.03;;
25525;SDS011;13424;48.424;11.258;2023-12-22T08:25:16;5.03;;;2.03;;
25525;SDS011;13424;48.424;11.258;2023-12-22T08:27:45;7.07;;;1.55;;
25525;SDS011;13424;48.424;11.258;2023-12-22T08:30:12;7.38;;;1.80;;
25525;SDS011;13424;48.424;11.258;2023-12-22T08:32:39;8.27;;;2.15;;
25525;SDS011;13424;48.424;11.258;2023-12-22T08:35:06;6.78;;;2.42;;
25525;SDS011;13424;48.424;11.258;2023-12-22T08:37:33;5.85;;;1.90;;
25525;SDS011;13424;48.424;11.258;2023-12-22T08:39:59;3.90;;;1.80;;
25525;SDS011;13424;48.424;11.258;2023-12-22T08:45:53;5.72;;;1.70;;
25525;SDS011;13424;48.424;11.258;2023-12-22T08:48:19;8.63;;;2.83;;
25525;SDS011;13424;48.424;11.258;2023-12-22T08:50:45;9.48;;;2.47;;
25525;SDS011;13424;48.424;11.258;2023-12-22T08:53:11;7.55;;;2.05;;
25525;SDS011;13424;48.424;11.258;2023-12-22T08:55:37;8.13;;;2.33;;
25525;SDS011;13424;48.424;11.258;2023-12-22T08:58:04;4.65;;;2.33;;
25525;SDS011;13424;48.424;11.258;2023-12-22T09:00:30;10.35;;;3.13;;
25525;SDS011;13424;48.424;11.258;2023-12-22T09:02:56;9.40;;;2.75;;
25525;SDS011;13424;48.424;11.258;2023-12-22T09:05:22;10.80;;;2.90;;
25525;SDS011;13424;48.424;11.258;2023-12-22T09:07:48;6.68;;;2.90;;
25525;SDS011;13424;48.424;11.258;2023-12-22T09:13:51;7.80;;;2.20;;
25525;SDS011;13424;48.424;11.258;2023-12-22T09:16:23;9.15;;;3.25;;
25525;SDS011;13424;48.424;11.258;2023-12-22T09:18:51;4.85;;;1.70;;
25525;SDS011;13424;48.424;11.258;2023-12-22T09:25:43;8.32;;;2.30;;
25525;SDS011;13424;48.424;11.258;2023-12-22T09:28:10;10.35;;;2.10;;
25525;SDS011;13424;48.424;11.258;2023-12-22T09:30:36;8.52;;;2.38;;
25525;SDS011;13424;48.424;11.258;2023-12-22T09:33:02;9.32;;;2.05;;
25525;SDS011;13424;48.424;11.258;2023-12-22T09:35:29;9.88;;;2.55;;
25525;SDS011;13424;48.424;11.258;2023-12-22T09:37:55;8.70;;;2.00;;
25525;SDS011;13424;48.424;11.258;2023-12-22T09:40:21;4.18;;;1.77;;
25525;SDS011;13424;48.424;11.258;2023-12-22T09:42:50;12.90;;;3.03;;
25525;SDS011;13424;48.424;11.258;2023-12-22T09:45:21;7.07;;;2.15;;
25525;SDS011;13424;48.424;11.258;2023-12-22T09:47:56;7.32;;;2.80;;
25525;SDS011;13424;48.424;11.258;2023-12-22T09:50:26;10.32;;;3.22;;
25525;SDS011;13424;48.424;11.258;2023-12-22T09:52:53;7.25;;;2.15;;
25525;SDS011;13424;48.424;11.258;2023-12-22T09:55:22;10.13;;;2.08;;
25525;SDS011;13424;48.424;11.258;2023-12-22T09:57:50;10.82;;;2.80;;
25525;SDS011;13424;48.424;11.258;2023-12-22T10:00:17;6.53;;;2.08;;
25525;SDS011;13424;48.424;11.258;2023-12-22T10:02:44;6.95;;;2.35;;
25525;SDS011;13424;48.424;11.258;2023-12-22T10:05:11;4.65;;;1.83;;
25525;SDS011;13424;48.424;11.258;2023-12-22T10:07:41;8.07;;;1.98;;
25525;SDS011;13424;48.424;11.258;2023-12-22T10:10:12;8.73;;;1.75;;
25525;SDS011;13424;48.424;11.258;2023-12-22T10:12:40;6.20;;;1.50;;
25525;SDS011;13424;48.424;11.258;2023-12-22T10:15:09;6.72;;;1.52;;
25525;SDS011;13424;48.424;11.258;2023-12-22T10:17:38;3.28;;;0.85;;
25525;SDS011;13424;48.424;11.258;2023-12-22T10:20:05;1.85;;;0.80;;
25525;SDS011;13424;48.424;11.258;2023-12-22T10:22:33;0.80;;;0.75;;
25525;SDS011;13424;48.424;11.258;2023-12-22T10:25:00;1.30;;;0.70;;
25525;SDS011;13424;48.424;11.258;2023-12-22T10:27:27;3.63;;;1.08;;
25525;SDS011;13424;48.424;11.258;2023-12-22T10:29:55;2.67;;;0.88;;
25525;SDS011;13424;48.424;11.258;2023-12-22T10:32:22;3.95;;;0.90;;
25525;SDS011;13424;48.424;11.258;2023-12-22T10:34:50;2.58;;;0.93;;
25525;SDS011;13424;48.424;11.258;2023-12-22T10:37:17;3.28;;;0.88;;
25525;SDS011;13424;48.424;11.258;2023-12-22T10:39:44;3.30;;;1.23;;
25525;SDS011;13424;48.424;11.258;2023-12-22T10:42:14;5.13;;;1.30;;
25525;SDS011;13424;48.424;11.258;2023-12-22T10:44:40;3.80;;;1.20;;
25525;SDS011;13424;48.424;11.258;2023-12-22T10:47:07;4.30;;;1.02;;
25525;SDS011;13424;48.424;11.258;2023-12-22T10:49:33;1.67;;;0.98;;
25525;SDS011;13424;48.424;11.258;2023-12-22T10:52:01;4.72;;;1.52;;
25525;SDS011;13424;48.424;11.258;2023-12-22T10:54:29;2.00;;;0.90;;
25525;SDS011;13424;48.424;11.258;2023-12-22T10:56:59;3.13;;;1.15;;
25525;SDS011;13424;48.424;11.258;2023-12-22T10:59:28;2.35;;;0.60;;
25525;SDS011;13424;48.424;11.258;2023-12-22T11:01:57;2.05;;;0.68;;
25525;SDS011;13424;48.424;11.258;2023-12-22T11:04:30;2.50;;;0.50;;
25525;SDS011;13424;48.424;11.258;2023-12-22T11:07:00;0.47;;;0.47;;
25525;SDS011;13424;48.424;11.258;2023-12-22T11:09:31;0.30;;;0.30;;
25525;SDS011;13424;48.424;11.258;2023-12-22T11:12:00;0.40;;;0.40;;
25525;SDS011;13424;48.424;11.258;2023-12-22T11:14:27;1.00;;;0.65;;
25525;SDS011;13424;48.424;11.258;2023-12-22T11:16:56;0.55;;;0.50;;
25525;SDS011;13424;48.424;11.258;2023-12-22T11:19:25;1.98;;;0.90;;
25525;SDS011;13424;48.424;11.258;2023-12-22T11:21:53;3.92;;;1.20;;
25525;SDS011;13424;48.424;11.258;2023-12-22T11:24:21;4.55;;;1.20;;
25525;SDS011;13424;48.424;11.258;2023-12-22T11:26:48;2.50;;;1.42;;
25525;SDS011;13424;48.424;11.258;2023-12-22T11:29:17;7.95;;;1.63;;
25525;SDS011;13424;48.424;11.258;2023-12-22T11:31:45;7.18;;;2.03;;
25525;SDS011;13424;48.424;11.258;2023-12-22T11:34:16;5.60;;;2.55;;
25525;SDS011;13424;48.424;11.258;2023-12-22T11:36:43;6.47;;;2.20;;
25525;SDS011;13424;48.424;11.258;2023-12-22T11:39:12;9.68;;;2.38;;
25525;SDS011;13424;48.424;11.258;2023-12-22T11:41:39;3.97;;;2.40;;
25525;SDS011;13424;48.424;11.258;2023-12-22T11:44:06;6.10;;;2.10;;
25525;SDS011;13424;48.424;11.258;2023-12-22T11:46:33;8.93;;;2.63;;
25525;SDS011;13424;48.424;11.258;2023-12-22T11:49:00;10.07;;;2.05;;
25525;SDS011;13424;48.424;11.258;2023-12-22T11:51:31;10.43;;;3.75;;
25525;SDS011;13424;48.424;11.258;2023-12-22T11:54:02;10.45;;;3.50;;
25525;SDS011;13424;48.424;11.258;2023-12-22T11:56:28;11.48;;;2.60;;
25525;SDS011;13424;48.424;11.258;2023-12-22T11:58:56;9.07;;;2.60;;
25525;SDS011;13424;48.424;11.258;2023-12-22T12:01:25;5.80;;;2.17;;
25525;SDS011;13424;48.424;11.258;2023-12-22T12:03:57;7.32;;;2.95;;
25525;SDS011;13424;48.424;11.258;2023-12-22T12:08:59;12.70;;;2.85;;
25525;SDS011;13424;48.424;11.258;2023-12-22T12:14:28;9.13;;;2.30;;
25525;SDS011;13424;48.424;11.258;2023-12-22T12:17:06;12.45;;;2.88;;
25525;SDS011;13424;48.424;11.258;2023-12-22T12:19:35;9.63;;;2.95;;
25525;SDS011;13424;48.424;11.258;2023-12-22T12:22:03;8.93;;;2.53;;
25525;SDS011;13424;48.424;11.258;2023-12-22T12:24:30;12.63;;;2.30;;
25525;SDS011;13424;48.424;11.258;2023-12-22T12:26:56;7.38;;;2.50;;
25525;SDS011;13424;48.424;11.258;2023-12-22T12:29:22;7.25;;;2.60;;
25525;SDS011;13424;48.424;11.258;2023-12-22T12:31:49;8.73;;;2.17;;
25525;SDS011;13424;48.424;11.258;2023-12-22T12:34:16;11.82;;;2.35;;
25525;SDS011;13424;48.424;11.258;2023-12-22T12:36:46;5.93;;;2.05;;
25525;SDS011;13424;48.424;11.258;2023-12-22T12:39:14;4.13;;;2.50;;
25525;SDS011;13424;48.424;11.258;2023-12-22T12:41:43;4.72;;;2.17;;
25525;SDS011;13424;48.424;11.258;2023-12-22T12:44:18;6.82;;;2.10;;
25525;SDS011;13424;48.424;11.258;2023-12-22T12:46:46;4.40;;;2.28;;
25525;SDS011;13424;48.424;11.258;2023-12-22T12:49:13;5.75;;;2.28;;
25525;SDS011;13424;48.424;11.258;2023-12-22T12:51:43;4.20;;;1.83;;
25525;SDS011;13424;48.424;11.258;2023-12-22T12:58:06;5.13;;;1.70;;
25525;SDS011;13424;48.424;11.258;2023-12-22T13:00:33;4.03;;;1.85;;
25525;SDS011;13424;48.424;11.258;2023-12-22T13:03:06;6.63;;;2.03;;
25525;SDS011;13424;48.424;11.258;2023-12-22T13:05:32;7.63;;;1.45;;
25525;SDS011;13424;48.424;11.258;2023-12-22T13:08:08;3.15;;;1.70;;
25525;SDS011;13424;48.424;11.258;2023-12-22T13:10:39;4.25;;;1.80;;
25525;SDS011;13424;48.424;11.258;2023-12-22T13:13:06;3.05;;;1.45;;
25525;SDS011;13424;48.424;11.258;2023-12-22T13:15:32;2.72;;;1.65;;
25525;SDS011;13424;48.424;11.258;2023-12-22T13:17:59;5.68;;;1.55;;
25525;SDS011;13424;48.424;11.258;2023-12-22T13:20:25;3.85;;;1.88;;
25525;SDS011;13424;48.424;11.258;2023-12-22T13:22:52;8.68;;;1.77;;
25525;SDS011;13424;48.424;11.258;2023-12-22T13:25:18;4.22;;;1.67;;
25525;SDS011;13424;48.424;11.258;2023-12-22T13:31:14;4.88;;;1.48;;
25525;SDS011;13424;48.424;11.258;2023-12-22T13:33:44;4.65;;;1.27;;
25525;SDS011;13424;48.424;11.258;2023-12-22T13:36:10;4.40;;;1.40;;
25525;SDS011;13424;48.424;11.258;2023-12-22T13:38:37;3.15;;;1.52;;
25525;SDS011;13424;48.424;11.258;2023-12-22T13:41:03;3.92;;;1.50;;
25525;SDS011;13424;48.424;11.258;2023-12-22T13:43:32;2.22;;;1.27;;
25525;SDS011;13424;48.424;11.258;2023-12-22T13:45:58;2.08;;;1.20;;
25525;SDS011;13424;48.424;11.258;2023-12-22T13:48:25;9.57;;;1.92;;
25525;SDS011;13424;48.424;11.258;2023-12-22T13:50:58;9.10;;;2.35;;
25525;SDS011;13424;48.424;11.258;2023-12-22T13:53:27;4.85;;;1.83;;
25525;SDS011;13424;48.424;11.258;2023-12-22T13:55:58;3.80;;;1.40;;
25525;SDS011;13424;48.424;11.258;2023-12-22T13:58:25;5.68;;;1.60;;
25525;SDS011;13424;48.424;11.258;2023-12-22T14:00:52;7.30;;;1.90;;
25525;SDS011;13424;48.424;11.258;2023-12-22T14:06:39;4.03;;;1.50;;
25525;SDS011;13424;48.424;11.258;2023-12-22T14:09:05;5.93;;;2.10;;
25525;SDS011;13424;48.424;11.258;2023-12-22T14:11:31;3.92;;;1.85;;
25525;SDS011;13424;48.424;11.258;2023-12-22T14:13:57;3.15;;;2.03;;
25525;SDS011;13424;48.424;11.258;2023-12-22T14:16:23;4.95;;;2.00;;
25525;SDS011;13424;48.424;11.258;2023-12-22T14:18:49;2.60;;;1.70;;
25525;SDS011;13424;48.424;11.258;2023-12-22T14:21:15;6.50;;;2.15;;
25525;SDS011;13424;48.424;11.258;2023-12-22T14:23:41;4.72;;;1.60;;
25525;SDS011;13424;48.424;11.258;2023-12-22T14:29:22;6.70;;;2.20;;
25525;SDS011;13424;48.424;11.258;2023-12-22T14:31:51;9.10;;;2.35;;
25525;SDS011;13424;48.424;11.258;2023-12-22T14:34:18;4.97;;;1.90;;
25525;SDS011;13424;48.424;11.258;2023-12-22T14:36:44;5.45;;;1.60;;
25525;SDS011;13424;48.424;11.258;2023-12-22T14:39:11;4.82;;;2.75;;
25525;SDS011;13424;48.424;11.258;2023-12-22T14:45:27;4.45;;;1.90;;
25525;SDS011;13424;48.424;11.258;2023-12-22T14:47:54;5.75;;;1.60;;
25525;SDS011;13424;48.424;11.258;2023-12-22T14:50:20;3.08;;;1.70;;
25525;SDS011;13424;48.424;11.258;2023-12-22T14:52:46;5.55;;;1.80;;
25525;SDS011;13424;48.424;11.258;2023-12-22T14:55:12;5.95;;;1.50;;
25525;SDS011;13424;48.424;11.258;2023-12-22T14:57:38;4.30;;;1.58;;
25525;SDS011;13424;48.424;11.258;2023-12-22T15:00:05;2.47;;;1.77;;
25525;SDS011;13424;48.424;11.258;2023-12-22T15:02:32;3.90;;;1.60;;
25525;SDS011;13424;48.424;11.258;2023-12-22T15:05:00;5.93;;;2.03;;
25525;SDS011;13424;48.424;11.258;2023-12-22T15:07:26;6.82;;;1.42;;
25525;SDS011;13424;48.424;11.258;2023-12-22T15:09:52;3.83;;;1.45;;
25525;SDS011;13424;48.424;11.258;2023-12-22T15:16:09;1.45;;;1.10;;
25525;SDS011;13424;48.424;11.258;2023-12-22T15:18:35;2.95;;;1.35;;
25525;SDS011;13424;48.424;11.258;2023-12-22T15:21:02;2.80;;;0.90;;
25525;SDS011;13424;48.424;11.258;2023-12-22T15:23:32;2.47;;;1.38;;
25525;SDS011;13424;48.424;11.258;2023-12-22T15:25:59;2.90;;;1.45;;
25525;SDS011;13424;48.424;11.258;2023-12-22T15:28:25;4.63;;;2.90;;
25525;SDS011;13424;48.424;11.258;2023-12-22T15:31:07;4.15;;;1.30;;
25525;SDS011;13424;48.424;11.258;2023-12-22T15:33:34;1.65;;;1.52;;
25525;SDS011;13424;48.424;11.258;2023-12-22T15:36:00;1.35;;;1.20;;
25525;SDS011;13424;48.424;11.258;2023-12-22T15:38:25;4.72;;;1.50;;
25525;SDS011;13424;48.424;11.258;2023-12-22T15:40:52;2.08;;;1.50;;
25525;SDS011;13424;48.424;11.258;2023-12-22T15:43:18;3.05;;;1.40;;
25525;SDS011;13424;48.424;11.258;2023-12-22T15:45:44;2.78;;;1.45;;